Time;durP1;ratioP1;P1;durP2;ratioP2;P2;SDS_P1;SDS_P2;PMS_P1;PMS_P2;Temp;Humidity;BMP_temperature;BMP_pressure;BME280_temperature;BME280_humidity;BME280_pressure;Samples;Min_cycle;Max_cycle;Signal;HPM_P1;HPM_P2
2022/11/11 00:01:07;;;;;;;;;;;;;;;16.08;63.26;102757.53;5031051;28;19924;-70
2022/11/11 00:03:33;;;;;;;;;;;;;;;16.01;64.07;102756.75;5032342;28;20515;-69
2022/11/11 00:06:02;;;;;;;;;;;;;;;16.78;62.18;102755.75;5032393;28;20010;-69
2022/11/11 00:08:27;;;;;;;;;;;;;;;16.24;63.35;102750.81;5035117;28;19987;-70
2022/11/11 00:10:52;;;;;;;;;;;;;;;16.80;60.93;102764.50;5050710;28;19998;-70
2022/11/11 00:13:17;;;;;;;;;;;;;;;16.25;63.30;102760.63;5051416;28;19920;-69
2022/11/11 00:15:43;;;;;;;;;;;;;;;15.98;64.42;102767.19;5052102;28;19917;-69
2022/11/11 00:26:27;;;;;;;;;;;;;;;16.25;63.27;102766.88;5032255;28;19924;-68
2022/11/11 00:28:52;;;;;;;;;;;;;;;16.60;61.45;102773.63;5036968;28;19920;-70
2022/11/11 00:31:18;;;;;;;;;;;;;;;16.52;61.64;102770.31;5051951;28;19921;-69
2022/11/11 00:33:43;;;;;;;;;;;;;;;16.62;61.72;102774.22;5052036;28;19924;-70
2022/11/11 00:36:08;;;;;;;;;;;;;;;16.07;64.06;102763.19;5051971;28;19917;-69
2022/11/11 00:38:46;;;;;;;;;;;;;;;16.45;62.83;102758.66;5052005;28;19913;-71
2022/11/11 00:41:12;;;;;;;;;;;;;;;16.12;62.88;102763.38;5050332;28;20015;-70
2022/11/11 00:43:37;;;;;;;;;;;;;;;16.23;62.44;102754.56;5051310;28;19916;-69
2022/11/11 00:51:30;;;;;;;;;;;;;;;16.40;62.76;102769.31;5051147;28;19920;-70
2022/11/11 00:53:56;;;;;;;;;;;;;;;15.85;65.09;102773.50;5051257;28;19912;-72
2022/11/11 00:56:22;;;;;;;;;;;;;;;16.66;61.65;102770.03;5050863;28;20284;-69
2022/11/11 00:58:47;;;;;;;;;;;;;;;16.33;62.67;102773.94;5050689;28;20008;-70
2022/11/11 01:01:12;;;;;;;;;;;;;;;16.05;63.48;102776.97;5050816;28;20011;-70
2022/11/11 01:03:37;;;;;;;;;;;;;;;15.95;64.07;102770.31;5049255;28;19927;-70
2022/11/11 01:06:03;;;;;;;;;;;;;;;16.49;62.38;102770.75;5050760;28;19970;-68
2022/11/11 01:08:29;;;;;;;;;;;;;;;16.47;62.33;102768.22;5051633;28;19974;-69
2022/11/11 01:10:54;;;;;;;;;;;;;;;17.05;59.96;102770.78;5051631;28;19917;-69
2022/11/11 01:13:23;;;;;;;;;;;;;;;16.46;62.62;102779.28;5051562;28;20471;-70
2022/11/11 01:15:49;;;;;;;;;;;;;;;15.61;64.92;102776.88;5051474;28;20118;-68
2022/11/11 01:18:16;;;;;;;;;;;;;;;16.22;63.16;102774.59;5051548;28;19995;-70
2022/11/11 01:20:42;;;;;;;;;;;;;;;16.03;64.47;102783.66;5051858;28;20044;-69
2022/11/11 01:23:08;;;;;;;;;;;;;;;16.42;62.19;102794.34;5051121;28;19999;-69
2022/11/11 01:25:34;;;;;;;;;;;;;;;16.03;64.04;102789.91;5034010;28;19940;-69
2022/11/11 01:28:01;;;;;;;;;;;;;;;16.29;62.43;102791.69;5034873;28;19917;-69
2022/11/11 01:30:26;;;;;;;;;;;;;;;16.29;63.17;102795.25;5050524;28;19927;-69
2022/11/11 01:32:52;;;;;;;;;;;;;;;15.38;66.05;102806.25;5035083;28;19913;-69
2022/11/11 01:35:17;;;;;;;;;;;;;;;15.40;66.51;102806.88;5034968;28;19927;-71
2022/11/11 01:37:42;;;;;;;;;;;;;;;15.35;66.90;102799.38;5034763;28;19928;-72
2022/11/11 01:40:08;;;;;;;;;;;;;;;15.75;65.78;102789.34;5033444;28;20051;-70
2022/11/11 01:42:49;;;;;;;;;;;;;;;15.76;65.55;102794.56;5034785;28;19917;-71
2022/11/11 01:45:33;;;;;;;;;;;;;;;15.82;65.71;102782.06;5050524;28;19966;-70
2022/11/11 01:50:43;;;;;;;;;;;;;;;15.75;65.39;102767.66;5055199;28;20047;-69
2022/11/11 01:53:08;;;;;;;;;;;;;;;16.40;63.90;102767.44;5054400;28;19962;-70
2022/11/11 01:55:33;;;;;;;;;;;;;;;15.59;66.62;102755.41;5054438;28;19928;-70
2022/11/11 01:58:03;;;;;;;;;;;;;;;16.05;64.75;102759.88;5054522;28;19920;-70
2022/11/11 02:00:29;;;;;;;;;;;;;;;15.88;64.91;102750.56;5054392;28;20018;-69
2022/11/11 02:02:59;;;;;;;;;;;;;;;15.92;65.10;102744.47;5054496;28;19952;-71
2022/11/11 02:05:42;;;;;;;;;;;;;;;15.96;65.52;102739.47;5054478;28;19923;-70
2022/11/11 02:08:09;;;;;;;;;;;;;;;15.67;66.23;102741.63;5053729;28;19966;-71
2022/11/11 02:10:34;;;;;;;;;;;;;;;15.80;65.42;102729.94;5054346;28;20038;-70
2022/11/11 02:15:44;;;;;;;;;;;;;;;16.04;64.97;102722.97;5054262;28;20423;-69
2022/11/11 02:18:09;;;;;;;;;;;;;;;16.03;64.89;102719.41;5053680;28;19908;-69
2022/11/11 02:20:36;;;;;;;;;;;;;;;15.75;66.75;102722.44;5054529;28;20417;-69
2022/11/11 02:23:20;;;;;;;;;;;;;;;15.53;67.15;102729.16;5053837;28;20403;-71
2022/11/11 02:25:46;;;;;;;;;;;;;;;16.10;65.24;102720.19;5034041;28;19996;-70
2022/11/11 02:28:12;;;;;;;;;;;;;;;15.95;65.54;102713.38;5034009;28;19924;-70
2022/11/11 02:30:38;;;;;;;;;;;;;;;15.91;65.34;102728.41;5037602;28;19920;-69
2022/11/11 02:33:03;;;;;;;;;;;;;;;15.51;67.55;102728.53;5053964;28;19974;-70
2022/11/11 02:35:36;;;;;;;;;;;;;;;15.62;67.03;102732.47;5053807;28;19924;-69
2022/11/11 02:38:08;;;;;;;;;;;;;;;15.76;66.53;102734.91;5053629;28;20261;-69
2022/11/11 02:41:55;;;;;;;;;;;;;;;15.99;66.04;102736.31;5053675;28;19916;-69
2022/11/11 02:43:23;;;;;;;;;;;;;;;15.62;66.53;102735.19;5053386;28;19923;-69
2022/11/11 02:45:48;;;;;;;;;;;;;;;16.22;64.87;102745.59;5053643;28;20000;-69
2022/11/11 02:48:14;;;;;;;;;;;;;;;15.73;66.12;102745.38;5053482;28;19913;-70
2022/11/11 02:50:40;;;;;;;;;;;;;;;15.94;66.16;102738.84;5054014;28;19936;-71
2022/11/11 02:53:05;;;;;;;;;;;;;;;15.55;66.85;102743.31;5053256;28;19998;-73
2022/11/11 02:55:30;;;;;;;;;;;;;;;15.47;67.70;102757.09;5053356;28;19932;-69
2022/11/11 02:57:55;;;;;;;;;;;;;;;15.82;66.59;102757.66;5052956;28;19943;-69
2022/11/11 03:00:21;;;;;;;;;;;;;;;15.80;66.54;102765.19;5053253;28;19982;-69
2022/11/11 03:02:46;;;;;;;;;;;;;;;15.61;67.33;102769.59;5052367;28;20456;-70
2022/11/11 03:05:11;;;;;;;;;;;;;;;15.96;65.57;102767.38;5053090;28;19917;-69
2022/11/11 03:07:36;;;;;;;;;;;;;;;15.24;68.34;102782.91;5053089;28;19916;-71
2022/11/11 03:10:01;;;;;;;;;;;;;;;15.72;66.76;102776.25;5052814;28;19916;-70
2022/11/11 03:12:27;;;;;;;;;;;;;;;15.89;66.68;102776.59;5052869;28;19966;-69
2022/11/11 03:14:53;;;;;;;;;;;;;;;15.71;66.00;102786.25;5053163;28;19962;-72
2022/11/11 03:22:58;;;;;;;;;;;;;;;16.03;64.50;102775.50;5052952;28;19963;-69
2022/11/11 03:25:38;;;;;;;;;;;;;;;16.18;64.93;102776.06;5033710;28;20366;-70
2022/11/11 03:28:05;;;;;;;;;;;;;;;15.75;66.35;102776.66;5032842;28;19924;-69
2022/11/11 03:30:31;;;;;;;;;;;;;;;15.75;66.28;102776.66;5048606;28;20258;-70
2022/11/11 03:32:56;;;;;;;;;;;;;;;16.10;65.37;102774.44;5033259;28;19920;-70
2022/11/11 03:35:21;;;;;;;;;;;;;;;16.06;65.58;102767.78;5032810;28;19925;-70
2022/11/11 03:40:30;;;;;;;;;;;;;;;16.06;65.84;102766.97;5032674;28;19935;-71
2022/11/11 03:42:55;;;;;;;;;;;;;;;16.05;65.45;102768.00;5031147;28;20376;-69
2022/11/11 03:45:21;;;;;;;;;;;;;;;15.88;66.18;102772.25;5032762;28;20373;-69
2022/11/11 03:47:46;;;;;;;;;;;;;;;15.63;67.18;102775.63;5032133;28;20487;-69
2022/11/11 03:50:11;;;;;;;;;;;;;;;15.91;66.15;102777.22;5032421;28;19917;-69
2022/11/11 03:52:39;;;;;;;;;;;;;;;15.43;67.74;102777.53;5032489;28;19983;-70
2022/11/11 03:55:05;;;;;;;;;;;;;;;15.81;66.07;102778.50;5048124;28;19924;-70
2022/11/11 03:57:30;;;;;;;;;;;;;;;15.66;66.44;102772.47;5052258;28;19919;-70
2022/11/11 03:59:55;;;;;;;;;;;;;;;15.84;65.93;102779.97;5053052;28;19928;-69
2022/11/11 04:10:33;;;;;;;;;;;;;;;15.92;65.64;102773.47;5051953;28;19939;-70
2022/11/11 04:23:54;;;;;;;;;;;;;;;16.40;64.04;102755.72;5045897;28;20324;-70
2022/11/11 04:26:20;;;;;;;;;;;;;;;16.24;63.90;102759.78;5031965;28;19925;-69
2022/11/11 04:31:29;;;;;;;;;;;;;;;15.34;67.44;102757.09;5051906;28;19928;-70
2022/11/11 04:33:54;;;;;;;;;;;;;;;16.22;64.79;102761.03;5052096;28;20285;-70
2022/11/11 04:36:19;;;;;;;;;;;;;;;15.81;65.38;102772.25;5052039;28;20434;-70
2022/11/11 04:41:28;;;;;;;;;;;;;;;16.23;63.62;102776.28;5052042;28;19966;-70
2022/11/11 04:46:37;;;;;;;;;;;;;;;16.59;62.65;102782.78;5052092;28;19923;-70
2022/11/11 04:49:02;;;;;;;;;;;;;;;15.92;65.09;102784.31;5051809;28;19916;-70
2022/11/11 04:52:25;;;;;;;;;;;;;;;16.36;63.77;102787.06;5051391;28;20004;-70
2022/11/11 04:54:13;;;;;;;;;;;;;;;16.12;63.76;102771.50;5051590;28;19909;-71
2022/11/11 04:56:48;;;;;;;;;;;;;;;16.85;61.86;102778.25;5051583;28;19979;-69
2022/11/11 04:59:16;;;;;;;;;;;;;;;16.11;64.13;102788.84;5052815;28;19921;-70
2022/11/11 05:04:42;;;;;;;;;;;;;;;16.73;63.24;102782.72;4992544;28;19920;-70
2022/11/11 05:09:52;;;;;;;;;;;;;;;16.35;63.73;102783.50;4992221;28;20026;-69
2022/11/11 05:12:17;;;;;;;;;;;;;;;16.01;64.46;102783.03;4992189;28;19922;-71
2022/11/11 05:22:53;;;;;;;;;;;;;;;16.17;64.08;102791.53;4973854;28;20018;-70
2022/11/11 05:25:25;;;;;;;;;;;;;;;16.34;64.19;102798.13;4974769;28;20404;-68
2022/11/11 05:27:53;;;;;;;;;;;;;;;16.96;61.96;102791.94;4993105;28;19917;-69
2022/11/11 05:30:19;;;;;;;;;;;;;;;16.01;65.01;102793.88;5009886;28;19963;-70
2022/11/11 05:32:44;;;;;;;;;;;;;;;15.86;65.78;102801.44;5012870;28;19913;-69
2022/11/11 05:35:13;;;;;;;;;;;;;;;16.39;64.10;102794.78;5012537;28;19921;-70
2022/11/11 05:37:38;;;;;;;;;;;;;;;16.19;64.14;102802.16;5014888;28;19921;-69
2022/11/11 05:40:04;;;;;;;;;;;;;;;16.39;63.69;102798.31;5054762;28;20004;-70
2022/11/11 05:42:30;;;;;;;;;;;;;;;16.87;61.83;102800.59;5054081;28;19938;-70
2022/11/11 05:44:55;;;;;;;;;;;;;;;17.11;61.12;102808.78;5046369;28;19950;-70
2022/11/11 05:47:20;;;;;;;;;;;;;;;17.06;61.50;102813.22;5045103;28;19921;-69
2022/11/11 05:49:45;;;;;;;;;;;;;;;16.67;62.42;102817.00;5042189;28;20397;-70
2022/11/11 05:52:12;;;;;;;;;;;;;;;16.93;61.37;102810.56;5043722;28;19917;-70
2022/11/11 05:54:37;;;;;;;;;;;;;;;16.61;63.07;102815.16;5043581;28;20698;-70
2022/11/11 05:57:03;;;;;;;;;;;;;;;16.64;62.43;102823.72;5042556;28;19959;-70
2022/11/11 05:59:28;;;;;;;;;;;;;;;16.40;63.18;102823.56;5044918;28;20257;-70
2022/11/11 06:01:54;;;;;;;;;;;;;;;16.93;61.69;102814.13;5043079;28;20393;-70
2022/11/11 06:04:19;;;;;;;;;;;;;;;16.76;61.63;102818.41;5045125;28;19932;-70
2022/11/11 06:06:44;;;;;;;;;;;;;;;16.80;62.65;102816.09;5041994;28;19917;-70
2022/11/11 06:09:09;;;;;;;;;;;;;;;16.80;62.25;102818.81;5037520;28;19959;-71
2022/11/11 06:11:34;;;;;;;;;;;;;;;16.53;62.83;102831.69;5041429;28;19963;-71
2022/11/11 06:14:02;;;;;;;;;;;;;;;16.03;64.96;102819.75;5037267;28;20009;-72
2022/11/11 06:16:28;;;;;;;;;;;;;;;16.76;62.87;102825.72;5046543;28;20345;-70
2022/11/11 06:18:53;;;;;;;;;;;;;;;16.99;61.34;102824.13;5054175;28;19916;-72
2022/11/11 06:21:18;;;;;;;;;;;;;;;16.65;63.39;102832.66;5054172;28;19939;-72
2022/11/11 06:23:44;;;;;;;;;;;;;;;16.27;64.61;102835.34;5054399;28;19974;-71
2022/11/11 06:26:12;;;;;;;;;;;;;;;16.31;63.97;102841.16;5053828;28;20364;-70
2022/11/11 06:28:41;;;;;;;;;;;;;;;16.68;62.99;102843.94;5053830;28;19917;-71
2022/11/11 06:31:07;;;;;;;;;;;;;;;16.11;64.91;102845.81;5053883;28;19924;-70
2022/11/11 06:33:34;;;;;;;;;;;;;;;16.82;62.21;102850.13;5053959;28;19965;-70
2022/11/11 06:35:59;;;;;;;;;;;;;;;16.24;64.17;102840.31;5054108;28;20287;-71
2022/11/11 06:38:24;;;;;;;;;;;;;;;16.61;63.08;102848.56;5054243;28;19908;-69
2022/11/11 06:40:49;;;;;;;;;;;;;;;16.28;63.35;102860.56;5053619;28;20367;-71
2022/11/11 06:43:15;;;;;;;;;;;;;;;16.68;62.90;102864.81;5053109;28;19924;-71
2022/11/11 06:45:40;;;;;;;;;;;;;;;16.75;62.97;102856.63;5053640;28;19912;-70
2022/11/11 06:48:06;;;;;;;;;;;;;;;16.46;63.16;102858.84;5053767;28;19912;-70
2022/11/11 06:50:31;;;;;;;;;;;;;;;16.40;63.58;102858.84;5054024;28;19916;-72
2022/11/11 06:53:03;;;;;;;;;;;;;;;16.78;62.92;102858.94;5053567;28;19912;-70
2022/11/11 06:55:28;;;;;;;;;;;;;;;16.67;62.27;102874.84;5053259;28;20015;-72
2022/11/11 06:57:53;;;;;;;;;;;;;;;16.77;62.58;102870.81;5053385;28;20339;-71
2022/11/11 07:00:18;;;;;;;;;;;;;;;16.36;63.65;102877.44;5048965;28;20657;-70
2022/11/11 07:02:44;;;;;;;;;;;;;;;16.45;63.37;102867.19;5042358;28;19917;-70
2022/11/11 07:05:09;;;;;;;;;;;;;;;15.80;65.33;102879.84;5040606;28;19917;-71
2022/11/11 07:07:34;;;;;;;;;;;;;;;15.75;65.85;102876.94;5043491;28;19949;-70
2022/11/11 07:10:00;;;;;;;;;;;;;;;15.92;65.18;102874.63;5042547;28;19924;-72
2022/11/11 07:12:25;;;;;;;;;;;;;;;16.24;63.78;102876.44;5050535;28;19924;-71
2022/11/11 07:14:50;;;;;;;;;;;;;;;15.78;65.22;102873.81;5044425;28;19945;-72
2022/11/11 07:17:16;;;;;;;;;;;;;;;16.36;63.36;102884.75;5043851;28;19959;-70
2022/11/11 07:19:41;;;;;;;;;;;;;;;16.38;63.49;102885.38;5041802;28;20288;-71
2022/11/11 07:22:06;;;;;;;;;;;;;;;16.68;61.96;102883.84;5040503;28;19917;-71
2022/11/11 07:24:31;;;;;;;;;;;;;;;16.60;63.27;102887.63;5044967;28;19924;-72
2022/11/11 07:26:58;;;;;;;;;;;;;;;16.57;62.94;102892.63;5035630;28;19909;-72
2022/11/11 07:29:23;;;;;;;;;;;;;;;16.64;62.55;102890.75;5037980;28;19921;-71
2022/11/11 07:31:50;;;;;;;;;;;;;;;16.16;64.51;102902.94;5052302;28;20073;-71
2022/11/11 07:34:15;;;;;;;;;;;;;;;16.39;63.60;102900.63;5035150;28;19928;-71
2022/11/11 07:36:40;;;;;;;;;;;;;;;16.24;63.70;102909.00;5032438;28;19921;-70
2022/11/11 07:39:05;;;;;;;;;;;;;;;16.10;63.85;102901.91;5040415;28;19935;-72
2022/11/11 07:41:30;;;;;;;;;;;;;;;16.38;63.21;102894.34;5052050;28;20262;-71
2022/11/11 07:43:56;;;;;;;;;;;;;;;16.27;63.94;102900.44;5051120;28;19916;-70
2022/11/11 07:46:21;;;;;;;;;;;;;;;16.22;63.43;102900.22;5052218;28;20007;-72
2022/11/11 07:48:47;;;;;;;;;;;;;;;16.14;63.68;102910.47;5052272;28;19916;-71
2022/11/11 07:51:12;;;;;;;;;;;;;;;16.30;63.96;102905.44;5050864;28;19912;-72
2022/11/11 07:53:38;;;;;;;;;;;;;;;16.59;62.55;102896.81;5051195;28;19948;-71
2022/11/11 07:56:03;;;;;;;;;;;;;;;16.89;61.63;102896.25;5052045;28;19971;-71
2022/11/11 07:58:28;;;;;;;;;;;;;;;16.67;62.32;102904.72;5052217;28;19928;-72
2022/11/11 08:00:53;;;;;;;;;;;;;;;16.38;63.26;102904.38;5052181;28;20347;-72
2022/11/11 08:03:19;;;;;;;;;;;;;;;16.65;62.12;102914.94;5052160;28;19943;-72
2022/11/11 08:05:44;;;;;;;;;;;;;;;16.01;64.18;102908.63;5052584;28;20367;-70
2022/11/11 08:08:10;;;;;;;;;;;;;;;15.78;65.05;102911.75;5052134;28;20291;-70
2022/11/11 08:10:35;;;;;;;;;;;;;;;16.34;63.70;102919.41;5051972;28;19913;-72
2022/11/11 08:15:45;;;;;;;;;;;;;;;16.24;63.95;102924.44;5045341;28;20368;-72
2022/11/11 08:18:10;;;;;;;;;;;;;;;16.68;62.41;102928.13;5032045;28;19944;-72
2022/11/11 08:20:35;;;;;;;;;;;;;;;16.74;62.19;102931.00;5032458;28;19920;-71
2022/11/11 08:23:03;;;;;;;;;;;;;;;16.21;64.04;102928.41;5031895;28;19963;-72
2022/11/11 08:25:29;;;;;;;;;;;;;;;16.02;64.49;102931.97;5051382;28;19959;-72
2022/11/11 08:27:58;;;;;;;;;;;;;;;16.84;61.63;102931.38;5051894;28;19981;-73
2022/11/11 08:30:24;;;;;;;;;;;;;;;16.58;61.86;102930.44;5051652;28;19952;-72
2022/11/11 08:32:55;;;;;;;;;;;;;;;16.59;62.13;102937.53;5052156;28;19952;-73
2022/11/11 08:35:20;;;;;;;;;;;;;;;16.53;62.55;102942.97;5055610;28;20410;-72
2022/11/11 08:37:46;;;;;;;;;;;;;;;16.76;61.85;102942.47;5055889;28;19912;-71
2022/11/11 08:40:11;;;;;;;;;;;;;;;16.36;62.95;102942.56;5055830;28;19944;-74
2022/11/11 08:42:36;;;;;;;;;;;;;;;16.82;61.78;102945.19;5055472;28;19924;-72
2022/11/11 08:45:01;;;;;;;;;;;;;;;17.16;60.60;102944.78;5055728;28;19919;-72
2022/11/11 08:47:26;;;;;;;;;;;;;;;17.06;60.89;102941.69;5056076;28;19916;-72
2022/11/11 08:49:52;;;;;;;;;;;;;;;17.13;60.54;102953.38;5055683;28;19917;-73
2022/11/11 08:52:17;;;;;;;;;;;;;;;16.95;60.80;102955.13;5055464;28;19917;-72
2022/11/11 08:54:42;;;;;;;;;;;;;;;16.45;63.09;102963.00;5055344;28;19916;-73
2022/11/11 08:57:07;;;;;;;;;;;;;;;16.08;64.17;102958.25;5055252;28;19935;-72
2022/11/11 08:59:33;;;;;;;;;;;;;;;15.95;64.58;102958.28;5055391;28;19971;-72
2022/11/11 09:01:58;;;;;;;;;;;;;;;16.37;63.85;102963.22;5054544;28;19924;-73
2022/11/11 09:04:23;;;;;;;;;;;;;;;16.96;61.55;102951.38;5054678;28;20000;-73
2022/11/11 09:06:48;;;;;;;;;;;;;;;16.70;62.84;102968.63;5054496;28;19956;-73
2022/11/11 09:09:14;;;;;;;;;;;;;;;16.10;64.17;102964.31;5054588;28;20266;-72
2022/11/11 09:11:39;;;;;;;;;;;;;;;16.72;62.35;102971.94;5054779;28;19912;-74
2022/11/11 09:14:04;;;;;;;;;;;;;;;17.40;60.01;102970.38;5054344;28;19916;-73
2022/11/11 09:16:29;;;;;;;;;;;;;;;17.06;61.04;102970.78;5054448;28;19921;-72
2022/11/11 09:18:55;;;;;;;;;;;;;;;16.90;61.54;102979.41;5054373;28;19917;-73
2022/11/11 09:21:20;;;;;;;;;;;;;;;16.39;63.88;102980.13;5054495;28;20361;-72
2022/11/11 09:23:45;;;;;;;;;;;;;;;16.50;62.75;102979.53;5049494;28;19920;-71
2022/11/11 09:26:10;;;;;;;;;;;;;;;17.33;60.38;102991.31;5034250;28;19939;-71
2022/11/11 09:28:35;;;;;;;;;;;;;;;17.16;61.36;102985.53;5037951;28;19939;-73
2022/11/11 09:31:01;;;;;;;;;;;;;;;17.27;60.45;102990.31;5051458;28;19920;-72
2022/11/11 09:33:26;;;;;;;;;;;;;;;16.83;61.37;102990.28;5034867;28;19921;-73
2022/11/11 09:35:52;;;;;;;;;;;;;;;16.90;61.95;103001.97;5035382;28;19913;-71
2022/11/11 09:38:17;;;;;;;;;;;;;;;17.20;60.41;102994.09;5034866;28;19916;-72
2022/11/11 09:40:48;;;;;;;;;;;;;;;16.86;61.49;103002.59;5034753;28;19931;-72
2022/11/11 09:43:13;;;;;;;;;;;;;;;16.00;64.44;103007.28;5034484;28;19917;-72
2022/11/11 09:45:38;;;;;;;;;;;;;;;15.88;64.58;103000.00;5033660;28;20023;-72
2022/11/11 09:48:22;;;;;;;;;;;;;;;16.77;61.69;103012.00;5034479;28;19913;-73
2022/11/11 09:50:53;;;;;;;;;;;;;;;16.52;61.68;103015.44;5033833;28;20353;-73
2022/11/11 09:53:38;;;;;;;;;;;;;;;17.37;59.74;103006.16;5034512;28;19939;-73
2022/11/11 09:56:14;;;;;;;;;;;;;;;17.21;60.60;103009.34;5033721;28;19924;-73
2022/11/11 09:58:43;;;;;;;;;;;;;;;17.36;60.74;103015.34;5034505;28;19967;-71
2022/11/11 10:01:11;;;;;;;;;;;;;;;17.85;59.01;103018.19;5033059;28;19921;-72
2022/11/11 10:03:42;;;;;;;;;;;;;;;18.13;58.15;103017.78;5034512;28;20242;-71
2022/11/11 10:06:10;;;;;;;;;;;;;;;18.45;56.92;103016.69;5034336;28;19913;-72
2022/11/11 10:08:40;;;;;;;;;;;;;;;18.66;56.36;103013.53;5034698;28;20254;-71
2022/11/11 10:11:11;;;;;;;;;;;;;;;17.31;60.00;103016.00;5034072;28;20384;-73
2022/11/11 10:13:37;;;;;;;;;;;;;;;17.86;58.12;103013.59;5034203;28;19999;-72
2022/11/11 10:16:23;;;;;;;;;;;;;;;17.98;58.36;103031.72;5042903;28;20000;-72
2022/11/11 10:19:12;;;;;;;;;;;;;;;18.03;57.80;103033.75;5053929;28;19917;-72
2022/11/11 10:21:43;;;;;;;;;;;;;;;17.84;58.47;103027.44;5054088;28;20369;-71
2022/11/11 10:24:14;;;;;;;;;;;;;;;17.41;59.53;103027.22;5045078;28;19917;-72
2022/11/11 10:26:41;;;;;;;;;;;;;;;17.04;60.85;103028.00;5033067;28;20375;-73
2022/11/11 10:29:19;;;;;;;;;;;;;;;16.88;61.56;103033.94;5051797;28;19927;-72
2022/11/11 10:31:48;;;;;;;;;;;;;;;16.19;63.00;103041.75;5053894;28;20011;-72
2022/11/11 10:34:15;;;;;;;;;;;;;;;17.16;60.34;103031.72;5053818;28;20352;-73
2022/11/11 10:36:46;;;;;;;;;;;;;;;17.48;59.90;103035.34;5053607;28;20034;-71
2022/11/11 10:39:14;;;;;;;;;;;;;;;16.99;60.96;103038.72;5053715;28;19908;-73
2022/11/11 10:41:46;;;;;;;;;;;;;;;17.63;59.46;103037.81;5053955;28;19962;-73
2022/11/11 10:44:25;;;;;;;;;;;;;;;18.19;57.28;103041.38;5053516;28;19968;-72
2022/11/11 10:46:55;;;;;;;;;;;;;;;18.16;57.26;103041.84;5053571;28;19916;-72
2022/11/11 10:49:23;;;;;;;;;;;;;;;17.43;58.84;103040.63;5053625;28;20423;-74
2022/11/11 10:51:57;;;;;;;;;;;;;;;17.51;59.00;103038.50;5053380;28;20384;-71
2022/11/11 10:54:27;;;;;;;;;;;;;;;17.38;60.09;103034.97;5050247;28;19983;-73
2022/11/11 10:57:02;;;;;;;;;;;;;;;17.48;58.73;103040.78;5038884;28;19967;-73
2022/11/11 10:59:34;;;;;;;;;;;;;;;17.88;58.00;103036.81;5042090;28;19923;-71
2022/11/11 11:02:03;;;;;;;;;;;;;;;17.99;58.00;103037.97;5041694;28;20015;-72
2022/11/11 11:04:44;;;;;;;;;;;;;;;17.41;59.55;103031.84;5041476;28;19921;-72
2022/11/11 11:07:12;;;;;;;;;;;;;;;17.71;58.24;103037.56;5042806;28;20003;-73
2022/11/11 11:09:46;;;;;;;;;;;;;;;17.61;58.80;103027.13;5041209;28;20325;-72
2022/11/11 11:12:17;;;;;;;;;;;;;;;16.78;60.62;103033.56;5039101;28;19921;-71
2022/11/11 11:14:44;;;;;;;;;;;;;;;17.27;59.51;103024.81;5042482;28;19923;-72
2022/11/11 11:17:15;;;;;;;;;;;;;;;17.24;59.24;103025.22;5040725;28;20303;-72
2022/11/11 11:19:41;;;;;;;;;;;;;;;16.60;61.78;103020.66;5040754;28;20075;-71
2022/11/11 11:22:06;;;;;;;;;;;;;;;16.82;61.21;103013.06;5040993;28;20424;-71
2022/11/11 11:24:33;;;;;;;;;;;;;;;17.37;59.49;103014.31;5041774;28;19955;-71
2022/11/11 11:26:59;;;;;;;;;;;;;;;17.94;58.31;103018.78;5042825;28;19971;-71
2022/11/11 11:29:38;;;;;;;;;;;;;;;17.67;58.24;103014.56;5039482;28;20375;-71
2022/11/11 11:32:11;;;;;;;;;;;;;;;18.22;57.32;103017.25;5040858;28;19924;-72
2022/11/11 11:34:42;;;;;;;;;;;;;;;17.95;56.74;103018.53;5039801;28;20575;-72
2022/11/11 11:37:08;;;;;;;;;;;;;;;17.48;59.06;103008.16;5041919;28;19921;-71
2022/11/11 11:39:34;;;;;;;;;;;;;;;18.05;57.38;103016.16;5043210;28;20062;-73
2022/11/11 11:41:59;;;;;;;;;;;;;;;18.81;55.47;103005.81;5040755;28;19949;-72
2022/11/11 11:44:24;;;;;;;;;;;;;;;19.09;54.50;103005.25;5041717;28;20014;-71
2022/11/11 11:46:51;;;;;;;;;;;;;;;18.68;55.18;103007.84;5042301;28;20300;-72
2022/11/11 11:49:40;;;;;;;;;;;;;;;19.11;53.99;103003.97;5040394;28;20387;-73
2022/11/11 11:52:11;;;;;;;;;;;;;;;18.67;54.93;103014.38;5041524;28;19936;-72
2022/11/11 11:54:48;;;;;;;;;;;;;;;18.35;56.08;103010.88;5040377;28;19921;-72
2022/11/11 11:57:36;;;;;;;;;;;;;;;18.81;55.40;103011.25;5040463;28;19913;-72
2022/11/11 12:00:04;;;;;;;;;;;;;;;19.25;54.11;103015.53;5000578;28;19917;-71
2022/11/11 12:02:48;;;;;;;;;;;;;;;19.41;53.24;103014.94;4998683;28;19994;-72
2022/11/11 12:05:22;;;;;;;;;;;;;;;19.77;52.58;103014.81;5000051;28;19917;-72
2022/11/11 12:08:02;;;;;;;;;;;;;;;19.60;53.53;103013.81;4989726;28;19960;-71
2022/11/11 12:10:46;;;;;;;;;;;;;;;19.20;53.60;103013.50;4989973;28;19918;-72
2022/11/11 12:13:12;;;;;;;;;;;;;;;18.96;54.42;103017.16;4989761;28;19917;-72
2022/11/11 12:15:51;;;;;;;;;;;;;;;19.38;53.22;103006.41;4994229;28;19922;-71
2022/11/11 12:18:40;;;;;;;;;;;;;;;19.91;52.11;102999.09;5008619;28;19996;-71
2022/11/11 12:21:05;;;;;;;;;;;;;;;19.86;51.66;102999.78;5008492;28;19909;-72
2022/11/11 12:23:37;;;;;;;;;;;;;;;19.51;52.39;103001.56;5008917;28;19916;-72
2022/11/11 12:26:21;;;;;;;;;;;;;;;19.61;52.32;103001.84;5008446;28;19914;-71
2022/11/11 12:28:49;;;;;;;;;;;;;;;19.63;51.91;102990.69;5006121;28;19918;-71
2022/11/11 12:31:24;;;;;;;;;;;;;;;19.42;52.76;103000.22;5008397;28;20467;-71
2022/11/11 12:33:59;;;;;;;;;;;;;;;20.02;51.52;102998.25;5008637;28;19928;-72
2022/11/11 12:36:35;;;;;;;;;;;;;;;19.76;52.45;102993.22;5018233;28;19924;-73
2022/11/11 12:39:19;;;;;;;;;;;;;;;20.37;50.93;102995.56;5050791;28;19966;-72
2022/11/11 12:41:44;;;;;;;;;;;;;;;19.74;52.24;102989.88;5051157;28;19911;-72
2022/11/11 12:44:10;;;;;;;;;;;;;;;19.84;51.86;102990.16;5049269;28;19917;-73
2022/11/11 12:46:38;;;;;;;;;;;;;;;20.00;51.70;102987.59;5050945;28;19924;-72
2022/11/11 12:49:16;;;;;;;;;;;;;;;19.52;52.96;102986.06;5050620;28;20376;-71
2022/11/11 12:51:55;;;;;;;;;;;;;;;19.97;51.91;102981.75;5050686;28;20020;-72
2022/11/11 12:54:21;;;;;;;;;;;;;;;19.91;51.78;102988.16;5050734;28;19917;-74
2022/11/11 12:56:49;;;;;;;;;;;;;;;20.32;51.62;102993.56;5050858;28;19917;-72
2022/11/11 12:59:34;;;;;;;;;;;;;;;20.04;52.07;102985.19;5050644;28;19916;-72
2022/11/11 13:02:00;;;;;;;;;;;;;;;20.21;51.64;102986.19;5050217;28;20364;-72
2022/11/11 13:04:45;;;;;;;;;;;;;;;20.30;51.60;102983.94;5050546;28;19916;-71
2022/11/11 13:07:10;;;;;;;;;;;;;;;20.25;51.94;102981.06;5027789;28;20278;-71
2022/11/11 13:09:45;;;;;;;;;;;;;;;20.36;51.79;102983.84;5027918;28;19921;-70
2022/11/11 13:12:10;;;;;;;;;;;;;;;19.99;52.72;102985.06;5027644;28;19921;-72
2022/11/11 13:14:35;;;;;;;;;;;;;;;20.58;50.82;102978.59;5028334;28;19913;-71
2022/11/11 13:17:01;;;;;;;;;;;;;;;19.99;51.89;102976.88;5022044;28;19916;-69
2022/11/11 13:20:02;;;;;;;;;;;;;;;19.62;53.27;102984.41;5028469;28;19923;-72
2022/11/11 13:22:29;;;;;;;;;;;;;;;18.60;55.93;102989.91;4953549;28;19993;-70
2022/11/11 13:24:55;;;;;;;;;;;;;;;19.72;53.12;102983.84;4953045;28;19928;-71
2022/11/11 13:27:35;;;;;;;;;;;;;;;20.04;51.83;102977.84;4953437;28;19954;-70
2022/11/11 13:30:06;;;;;;;;;;;;;;;19.43;53.07;102985.53;4951073;28;20429;-70
2022/11/11 13:32:50;;;;;;;;;;;;;;;19.60;52.87;102992.00;4953168;29;19947;-71
2022/11/11 13:35:18;;;;;;;;;;;;;;;20.26;51.23;102999.97;4952618;29;20120;-73
2022/11/11 13:37:44;;;;;;;;;;;;;;;19.75;52.45;102984.19;4952506;29;19958;-70
2022/11/11 13:40:22;;;;;;;;;;;;;;;19.45;52.69;102997.03;4952573;29;19954;-70
2022/11/11 13:42:49;;;;;;;;;;;;;;;18.56;55.26;103002.31;4952259;29;20004;-72
2022/11/11 13:45:40;;;;;;;;;;;;;;;19.25;53.79;103005.47;4962780;28;19914;-71
2022/11/11 13:48:15;;;;;;;;;;;;;;;19.28;53.54;103009.66;4970511;28;20049;-74
2022/11/11 13:50:41;;;;;;;;;;;;;;;18.43;56.37;103007.91;4972132;28;19914;-71
2022/11/11 13:53:14;;;;;;;;;;;;;;;18.63;55.73;103008.53;4971748;28;19969;-71